メインページ
METAR-TAF:

METAR-TAF

空港 :

女満別空港

女満別, 日本

緯度: 43-53N, 経度: 144-10E, 海抜: 33m

現時点の気象観測

当レポートは1時間21分前の11:00(UTC)に作成
南西の風 4kt、から西の間で変化する
気温 9°C
湿度 93%
気圧 1010 hPa
視程: 4900m
高度100ftの雲はほとんどない
高度200ftの雲は散在している
高度7000ftの千切れ雲あり
弱いにわか雨, 靄

METAR: RJCM 161100Z 23004KT 190V280 4900 -SHRA BR FEW001 SCT002 BKN070 09/08 Q1010

時間: 21:21 (12:21 UTC)

予報

当レポートは1時間8分前の11:13(UTC)に作成
予報は16日の 12時(UTC)から 17日の 18時(UTC)まで有効
南西の風 5kt
視程10km以上
高度300ftの雲はほとんどない
高度1500ftの千切れ雲あり
16日の 12時(UTC)から 16日の 21時(UTC)まで一時的に
視程: 1500m
高度100ftの雲はほとんどない
高度300ftの千切れ雲あり
17日の 00時(UTC)から 17日の 03時(UTC)まで徐々に
北/北西の風 5kt
17日の 06時(UTC)から 17日の 09時(UTC)まで徐々に
南/南西の風 6kt

TAF: RJCM 161113Z 1612/1718 22005KT 9999 FEW003 BKN015 TEMPO 1612/1621 1500 BR FEW001 BKN003 BECMG 1700/1703 33005KT BECMG 1706/1709 20006KT

4,000以上の空港の気象観測と天気予報(METAR報とTAF報)

利用可能な観測所は地図上に黄色い丸と赤い丸で示す。

丸の上にカーソルを重ねると観測所名を参照できる。

次にクリックすると気象観測と天気予報を参照できる。

マップの切り替え:黒色「×」印の緑ボタンをクリックして拡大、「-」印の緑ボタンをクリックして縮小、緑色の三角印をクリックして隣りの地図に切り替え


METAR-TAF: